Time;durP1;ratioP1;P1;durP2;ratioP2;P2;SDS_P1;SDS_P2;PMS_P1;PMS_P2;Temp;Humidity;BMP_temperature;BMP_pressure;BME280_temperature;BME280_humidity;BME280_pressure;Samples;Min_cycle;Max_cycle;Signal;HPM_P1;HPM_P2
2022/06/09 00:00:42;;;;;;;;;;;;;;;11.63;55.98;94896.69;5062741;28;20276;-66
2022/06/09 00:03:15;;;;;;;;;;;;;;;11.36;56.26;94905.41;5063470;28;20157;-66
2022/06/09 00:05:40;;;;;;;;;;;;;;;11.57;55.90;94906.31;5063793;28;19991;-66
2022/06/09 00:08:06;;;;;;;;;;;;;;;11.44;56.05;94914.25;5032263;28;20002;-66
2022/06/09 00:10:33;;;;;;;;;;;;;;;11.57;55.46;94906.31;5060489;28;19997;-66
2022/06/09 00:12:58;;;;;;;;;;;;;;;11.40;55.62;94911.19;5063240;28;20009;-66
2022/06/09 00:15:23;;;;;;;;;;;;;;;11.38;55.72;94919.38;5063291;28;20237;-66
2022/06/09 00:17:49;;;;;;;;;;;;;;;11.09;55.74;94915.97;5059880;28;19994;-66
2022/06/09 00:20:14;;;;;;;;;;;;;;;10.99;56.44;94915.50;5063404;28;20049;-67
2022/06/09 00:22:39;;;;;;;;;;;;;;;10.96;56.11;94919.41;5050544;28;20007;-65
2022/06/09 00:25:05;;;;;;;;;;;;;;;11.16;55.92;94921.34;5063178;28;20371;-66
2022/06/09 00:27:30;;;;;;;;;;;;;;;10.40;56.60;94922.97;5061791;28;20039;-65
2022/06/09 00:29:55;;;;;;;;;;;;;;;10.13;58.30;94920.09;5063201;28;20041;-66
2022/06/09 00:32:20;;;;;;;;;;;;;;;10.45;57.22;94931.16;5062498;28;20296;-66
2022/06/09 00:34:46;;;;;;;;;;;;;;;9.76;59.36;94925.47;5064050;28;19981;-65
2022/06/09 00:37:11;;;;;;;;;;;;;;;9.85;59.05;94933.13;5050540;28;20438;-65
2022/06/09 00:39:36;;;;;;;;;;;;;;;10.51;56.93;94929.56;5056324;28;19973;-65
2022/06/09 00:42:01;;;;;;;;;;;;;;;9.83;58.09;94934.34;5053568;28;20015;-65
2022/06/09 00:44:27;;;;;;;;;;;;;;;9.74;58.73;94941.59;5062663;28;20124;-65
2022/06/09 00:46:54;;;;;;;;;;;;;;;9.74;58.94;94941.59;5076658;28;19991;-65
2022/06/09 00:49:29;;;;;;;;;;;;;;;9.89;58.31;94938.06;5063096;28;20445;-64
2022/06/09 00:51:55;;;;;;;;;;;;;;;10.23;58.32;94940.00;5063062;28;20004;-65
2022/06/09 00:54:37;;;;;;;;;;;;;;;10.08;58.17;94947.25;5041599;28;19968;-65
2022/06/09 00:57:10;;;;;;;;;;;;;;;9.89;58.53;94938.88;5062962;28;20692;-65
2022/06/09 00:59:35;;;;;;;;;;;;;;;9.80;59.04;94943.47;5038657;28;19964;-65
2022/06/09 01:02:00;;;;;;;;;;;;;;;9.57;59.68;94947.16;5062894;28;19984;-65
2022/06/09 01:04:26;;;;;;;;;;;;;;;8.99;61.53;94955.03;5063053;28;20039;-65
2022/06/09 01:06:52;;;;;;;;;;;;;;;9.05;61.07;94947.16;5062934;28;19965;-65
2022/06/09 01:09:19;;;;;;;;;;;;;;;8.76;62.42;94954.09;5057249;28;19995;-65
2022/06/09 01:11:47;;;;;;;;;;;;;;;8.54;63.37;94963.78;5073320;28;20000;-65
2022/06/09 01:14:13;;;;;;;;;;;;;;;8.63;62.89;94959.22;5066249;28;20022;-65
2022/06/09 01:16:57;;;;;;;;;;;;;;;8.73;62.21;94965.09;5048794;28;20268;-65
2022/06/09 01:19:40;;;;;;;;;;;;;;;8.47;62.98;94968.97;5053211;28;20059;-63
2022/06/09 01:22:08;;;;;;;;;;;;;;;8.24;64.40;94969.88;5048513;28;20300;-65
2022/06/09 01:24:40;;;;;;;;;;;;;;;8.55;62.92;94965.44;5059547;28;19989;-65
2022/06/09 01:27:12;;;;;;;;;;;;;;;8.75;62.18;94970.22;5077865;28;20042;-65
2022/06/09 01:29:43;;;;;;;;;;;;;;;8.47;63.36;94974.28;5059988;28;20498;-65
2022/06/09 01:32:11;;;;;;;;;;;;;;;8.90;61.96;94970.19;5048218;28;20046;-65
2022/06/09 01:34:39;;;;;;;;;;;;;;;8.85;61.49;94964.63;5060742;28;20341;-65
2022/06/09 01:37:15;;;;;;;;;;;;;;;9.26;60.48;94960.69;5059933;28;20009;-65
2022/06/09 01:39:44;;;;;;;;;;;;;;;9.43;60.33;94961.31;5054632;28;19965;-65
2022/06/09 01:42:22;;;;;;;;;;;;;;;9.03;60.91;94956.31;5048183;28;20000;-65
2022/06/09 01:44:48;;;;;;;;;;;;;;;9.11;60.66;94958.06;5036724;28;20483;-65
2022/06/09 01:47:13;;;;;;;;;;;;;;;9.69;58.89;94960.75;5066544;28;20035;-65
2022/06/09 01:49:39;;;;;;;;;;;;;;;9.56;58.85;94961.44;5061017;28;20445;-65
2022/06/09 01:52:04;;;;;;;;;;;;;;;9.69;58.71;94952.00;5073311;28;20079;-66
2022/06/09 01:54:31;;;;;;;;;;;;;;;9.54;59.23;94962.66;5062999;28;19984;-66
2022/06/09 01:56:57;;;;;;;;;;;;;;;9.75;58.58;94959.19;5071495;28;20043;-65
2022/06/09 01:59:24;;;;;;;;;;;;;;;9.57;59.01;94963.09;5066731;28;20062;-66
2022/06/09 02:02:06;;;;;;;;;;;;;;;8.92;60.92;94968.19;5047758;28;20046;-65
2022/06/09 02:04:51;;;;;;;;;;;;;;;9.16;60.31;94966.28;5065618;28;20024;-66
2022/06/09 02:07:17;;;;;;;;;;;;;;;8.91;61.09;94966.56;5063243;28;20466;-65
2022/06/09 02:09:42;;;;;;;;;;;;;;;9.30;60.36;94961.97;5070968;28;20028;-65
2022/06/09 02:12:10;;;;;;;;;;;;;;;8.90;61.40;94960.41;5046414;28;20337;-65
2022/06/09 02:14:35;;;;;;;;;;;;;;;8.84;61.16;94971.75;5069380;28;19963;-65
2022/06/09 02:17:00;;;;;;;;;;;;;;;8.90;60.88;94967.56;5065753;28;20531;-65
2022/06/09 02:19:25;;;;;;;;;;;;;;;9.24;59.93;94966.19;5046194;28;19964;-66
2022/06/09 02:21:51;;;;;;;;;;;;;;;9.12;60.50;94962.34;5047598;28;20272;-66
2022/06/09 02:24:16;;;;;;;;;;;;;;;9.29;60.09;94963.78;5064466;28;20367;-65
2022/06/09 02:26:41;;;;;;;;;;;;;;;9.30;59.89;94973.44;5053091;28;20383;-65
2022/06/09 02:29:06;;;;;;;;;;;;;;;9.08;60.38;94978.66;5065431;28;20013;-65
2022/06/09 02:31:32;;;;;;;;;;;;;;;9.38;59.61;94979.66;5064319;28;19973;-65
2022/06/09 02:33:57;;;;;;;;;;;;;;;8.60;61.61;94972.88;5065381;28;20000;-65
2022/06/09 02:36:22;;;;;;;;;;;;;;;8.75;61.15;94981.66;5064412;28;20024;-66
2022/06/09 02:38:48;;;;;;;;;;;;;;;9.11;60.70;94974.00;5056814;28;20017;-65
2022/06/09 02:41:13;;;;;;;;;;;;;;;8.57;61.56;94974.84;5054439;28;20020;-65
2022/06/09 02:43:39;;;;;;;;;;;;;;;8.67;61.46;94977.25;5080497;28;19976;-65
2022/06/09 02:46:04;;;;;;;;;;;;;;;8.81;61.13;94977.47;5065147;28;20650;-65
2022/06/09 02:48:30;;;;;;;;;;;;;;;9.19;60.40;94984.53;5064538;28;20189;-65
2022/06/09 02:50:55;;;;;;;;;;;;;;;9.00;60.35;94978.75;5065325;28;19977;-65
2022/06/09 02:53:20;;;;;;;;;;;;;;;8.82;60.93;94981.75;5063416;28;19987;-65
2022/06/09 02:55:46;;;;;;;;;;;;;;;8.14;62.85;94986.03;5064819;28;19981;-65
2022/06/09 02:58:11;;;;;;;;;;;;;;;8.13;63.89;94983.56;5064708;28;20017;-65
2022/06/09 03:00:36;;;;;;;;;;;;;;;8.47;62.25;94989.41;5064868;28;20003;-65
2022/06/09 03:03:03;;;;;;;;;;;;;;;8.01;64.02;94997.22;5064721;28;19973;-65
2022/06/09 03:05:29;;;;;;;;;;;;;;;7.78;64.67;94989.25;5053091;28;19992;-65
2022/06/09 03:07:54;;;;;;;;;;;;;;;7.96;64.21;94986.31;5064596;28;19985;-65
2022/06/09 03:10:20;;;;;;;;;;;;;;;8.45;62.58;94986.91;5045713;28;20939;-65
2022/06/09 03:12:45;;;;;;;;;;;;;;;8.35;62.63;94999.59;5064713;28;19999;-65
2022/06/09 03:15:11;;;;;;;;;;;;;;;8.09;63.29;94998.97;5064118;28;20356;-65
2022/06/09 03:17:36;;;;;;;;;;;;;;;8.50;62.10;95005.75;5065005;28;20360;-65
2022/06/09 03:20:02;;;;;;;;;;;;;;;8.76;61.16;94999.22;5058451;28;19967;-66
2022/06/09 03:22:27;;;;;;;;;;;;;;;8.41;62.01;94998.91;5056867;28;20030;-65
2022/06/09 03:24:53;;;;;;;;;;;;;;;9.14;60.09;94998.34;5064405;28;20046;-65
2022/06/09 03:27:18;;;;;;;;;;;;;;;8.56;61.59;94998.91;5053836;28;19985;-66
2022/06/09 03:29:43;;;;;;;;;;;;;;;8.56;61.65;95007.72;5062103;28;20050;-65
2022/06/09 03:32:09;;;;;;;;;;;;;;;8.99;60.21;95006.31;5062877;28;20388;-65
2022/06/09 03:34:35;;;;;;;;;;;;;;;8.88;60.42;95012.06;5045169;28;19976;-65
2022/06/09 03:37:00;;;;;;;;;;;;;;;9.22;59.82;95007.22;5045239;28;20004;-65
2022/06/09 03:39:25;;;;;;;;;;;;;;;9.40;59.01;95001.53;5059994;28;20003;-65
2022/06/09 03:41:51;;;;;;;;;;;;;;;8.84;60.70;95002.81;5061048;28;20609;-65
2022/06/09 03:44:17;;;;;;;;;;;;;;;8.44;61.82;95002.00;5050721;28;20000;-65
2022/06/09 03:46:42;;;;;;;;;;;;;;;9.06;59.97;94995.78;5063966;28;19995;-65
2022/06/09 03:49:07;;;;;;;;;;;;;;;8.77;60.39;95000.88;5063974;28;20519;-65
2022/06/09 03:51:33;;;;;;;;;;;;;;;8.85;60.42;95015.06;5056077;28;20523;-65
2022/06/09 03:53:59;;;;;;;;;;;;;;;9.24;59.15;95021.16;5057673;28;19985;-65
2022/06/09 03:56:24;;;;;;;;;;;;;;;8.92;59.78;95021.28;5063883;28;20443;-66
2022/06/09 03:58:49;;;;;;;;;;;;;;;9.32;58.51;95019.22;5052408;28;20072;-66
2022/06/09 04:01:17;;;;;;;;;;;;;;;9.85;57.37;95020.03;5058543;28;19992;-66
2022/06/09 04:03:42;;;;;;;;;;;;;;;10.11;56.47;95021.34;5045887;28;20116;-66
2022/06/09 04:06:14;;;;;;;;;;;;;;;10.16;55.43;95023.44;5035985;28;20111;-66
2022/06/09 04:08:39;;;;;;;;;;;;;;;10.40;55.01;95029.41;5061263;28;20376;-66
2022/06/09 04:11:05;;;;;;;;;;;;;;;10.02;56.44;95033.91;5063376;28;19968;-66
2022/06/09 04:13:30;;;;;;;;;;;;;;;9.64;57.23;95036.75;5063568;28;20045;-66
2022/06/09 04:15:55;;;;;;;;;;;;;;;9.98;56.14;95045.94;5056272;28;20075;-66
2022/06/09 04:18:20;;;;;;;;;;;;;;;10.18;55.92;95045.34;5057711;28;19972;-66
2022/06/09 04:20:46;;;;;;;;;;;;;;;10.13;56.33;95048.56;5058023;28;20016;-65
2022/06/09 04:23:11;;;;;;;;;;;;;;;10.09;56.18;95050.78;5061675;28;19977;-65
2022/06/09 04:25:38;;;;;;;;;;;;;;;10.22;55.88;95049.28;5061820;28;19997;-66
2022/06/09 04:28:03;;;;;;;;;;;;;;;10.10;56.30;95057.75;5063328;28;20004;-66
2022/06/09 04:30:28;;;;;;;;;;;;;;;10.07;56.29;95067.97;5042681;28;20371;-65
2022/06/09 04:32:54;;;;;;;;;;;;;;;9.49;57.77;95076.66;5063333;28;19997;-66
2022/06/09 04:35:19;;;;;;;;;;;;;;;9.89;57.22;95073.66;5061890;28;20476;-65
2022/06/09 04:37:59;;;;;;;;;;;;;;;9.83;57.28;95076.03;5063005;28;20054;-66
2022/06/09 04:40:25;;;;;;;;;;;;;;;9.56;58.21;95078.38;5057944;28;19999;-66
2022/06/09 04:42:50;;;;;;;;;;;;;;;9.28;58.56;95083.53;5054951;28;19972;-66
2022/06/09 04:45:16;;;;;;;;;;;;;;;9.65;57.92;95079.09;5049730;28;20415;-66
2022/06/09 04:47:41;;;;;;;;;;;;;;;9.64;57.93;95082.78;5062736;28;20084;-66
2022/06/09 04:50:07;;;;;;;;;;;;;;;9.21;59.02;95086.06;5062596;28;19973;-66
2022/06/09 04:52:33;;;;;;;;;;;;;;;9.30;59.26;95084.16;5063097;28;20199;-66
2022/06/09 04:54:58;;;;;;;;;;;;;;;9.43;58.75;95089.66;5048364;28;19971;-65
2022/06/09 04:57:23;;;;;;;;;;;;;;;8.98;60.41;95092.28;5041810;28;20003;-66
2022/06/09 04:59:48;;;;;;;;;;;;;;;9.58;58.58;95089.66;5058439;28;20527;-66
2022/06/09 05:02:14;;;;;;;;;;;;;;;10.07;57.52;95087.38;5057915;28;20441;-65
2022/06/09 05:04:39;;;;;;;;;;;;;;;10.10;56.73;95097.66;5062859;28;20507;-65
2022/06/09 05:07:05;;;;;;;;;;;;;;;10.13;57.00;95098.28;5062992;28;19984;-66
2022/06/09 05:09:30;;;;;;;;;;;;;;;9.72;57.99;95101.28;5059422;28;20355;-66
2022/06/09 05:11:55;;;;;;;;;;;;;;;9.69;58.52;95111.47;5053503;28;20421;-66
2022/06/09 05:14:21;;;;;;;;;;;;;;;9.57;58.78;95114.59;5062026;28;20323;-66
2022/06/09 05:16:46;;;;;;;;;;;;;;;8.67;61.33;95109.94;5062951;28;19993;-66
2022/06/09 05:19:11;;;;;;;;;;;;;;;8.54;61.92;95110.53;5060639;28;20429;-65
2022/06/09 05:21:36;;;;;;;;;;;;;;;8.71;61.84;95112.22;5059278;28;20376;-66
2022/06/09 05:24:02;;;;;;;;;;;;;;;8.17;63.68;95117.44;5057962;28;19989;-66
2022/06/09 05:26:27;;;;;;;;;;;;;;;8.38;63.13;95115.97;5054264;28;19972;-65
2022/06/09 05:28:52;;;;;;;;;;;;;;;8.13;63.77;95121.44;5059798;28;20083;-65
2022/06/09 05:31:17;;;;;;;;;;;;;;;8.15;63.84;95124.72;5056722;28;20023;-65
2022/06/09 05:33:42;;;;;;;;;;;;;;;8.42;63.28;95125.22;5032762;28;20015;-65
2022/06/09 05:36:08;;;;;;;;;;;;;;;8.70;62.17;95129.97;5043822;28;20011;-65
2022/06/09 05:46:45;;;;;;;;;;;;;;;8.60;62.74;95127.56;5058846;28;20006;-66
2022/06/09 05:49:10;;;;;;;;;;;;;;;7.77;64.77;95144.78;5059388;28;20608;-65
2022/06/09 05:51:36;;;;;;;;;;;;;;;8.17;63.46;95141.28;5050268;28;19968;-65
2022/06/09 05:54:01;;;;;;;;;;;;;;;7.72;65.21;95152.38;5054915;28;20360;-65
2022/06/09 05:56:27;;;;;;;;;;;;;;;8.14;64.58;95147.78;5052261;28;20026;-65
2022/06/09 05:58:52;;;;;;;;;;;;;;;7.45;66.41;95162.41;5037787;28;20448;-65
2022/06/09 06:01:17;;;;;;;;;;;;;;;7.74;65.75;95155.69;5057734;28;19993;-65
2022/06/09 06:03:42;;;;;;;;;;;;;;;7.97;65.03;95160.28;5054792;28;20233;-65
2022/06/09 06:08:51;;;;;;;;;;;;;;;7.99;65.66;95158.25;5061612;28;20324;-66
2022/06/09 06:11:17;;;;;;;;;;;;;;;7.70;66.08;95170.28;5060053;28;20342;-65
2022/06/09 06:13:42;;;;;;;;;;;;;;;7.99;65.64;95168.06;5056712;28;20027;-65
2022/06/09 06:16:07;;;;;;;;;;;;;;;7.94;65.67;95175.69;5037526;28;20057;-65
2022/06/09 06:18:33;;;;;;;;;;;;;;;8.37;65.09;95173.47;5057246;28;20083;-66
2022/06/09 06:20:58;;;;;;;;;;;;;;;8.25;64.85;95170.41;5056321;28;20162;-66
2022/06/09 06:23:23;;;;;;;;;;;;;;;8.21;65.30;95179.72;5055456;28;20415;-66
2022/06/09 06:25:48;;;;;;;;;;;;;;;8.18;65.05;95188.00;5057177;28;20000;-65
2022/06/09 06:28:14;;;;;;;;;;;;;;;7.86;65.88;95184.50;5048749;28;20047;-63
2022/06/09 06:30:39;;;;;;;;;;;;;;;7.94;65.84;95197.72;5059008;28;19973;-66
2022/06/09 06:33:04;;;;;;;;;;;;;;;7.58;66.75;95196.31;5056767;28;20066;-66
2022/06/09 06:35:30;;;;;;;;;;;;;;;8.42;64.48;95197.69;5055232;28;20008;-66
2022/06/09 06:37:55;;;;;;;;;;;;;;;8.66;63.43;95195.03;5060622;28;19987;-66
2022/06/09 06:40:20;;;;;;;;;;;;;;;8.81;62.74;95200.41;5057150;28;20050;-66
2022/06/09 06:42:45;;;;;;;;;;;;;;;8.34;63.80;95210.16;5056452;28;20201;-66
2022/06/09 06:45:12;;;;;;;;;;;;;;;8.55;63.31;95206.88;5059365;28;20063;-66
2022/06/09 06:47:38;;;;;;;;;;;;;;;8.87;62.00;95214.81;5031936;28;19989;-66
2022/06/09 06:50:04;;;;;;;;;;;;;;;8.44;63.96;95221.38;5041294;28;19989;-66
2022/06/09 06:52:29;;;;;;;;;;;;;;;8.14;64.57;95218.53;5059910;28;19996;-66
2022/06/09 06:54:54;;;;;;;;;;;;;;;8.40;63.27;95217.41;5046588;28;20264;-65
2022/06/09 06:57:20;;;;;;;;;;;;;;;8.78;62.74;95229.97;5050713;28;20039;-65
2022/06/09 06:59:45;;;;;;;;;;;;;;;8.66;63.26;95230.38;5055398;28;20326;-66
2022/06/09 07:02:10;;;;;;;;;;;;;;;8.37;63.97;95242.44;5054657;28;20060;-66
2022/06/09 07:04:36;;;;;;;;;;;;;;;8.25;64.16;95236.72;5053268;28;19988;-65
2022/06/09 07:07:01;;;;;;;;;;;;;;;8.72;62.78;95242.09;5057433;28;20421;-66
2022/06/09 07:09:26;;;;;;;;;;;;;;;8.60;62.73;95246.16;5057977;28;20388;-66
2022/06/09 07:11:52;;;;;;;;;;;;;;;9.31;62.11;95237.22;5059754;28;20348;-66
2022/06/09 07:14:17;;;;;;;;;;;;;;;9.25;61.31;95245.91;5057308;28;20030;-66
2022/06/09 07:16:42;;;;;;;;;;;;;;;9.66;60.05;95250.03;5051768;28;20334;-66
2022/06/09 07:19:07;;;;;;;;;;;;;;;9.67;60.23;95251.69;5059512;28;19977;-66
2022/06/09 07:21:32;;;;;;;;;;;;;;;9.26;61.00;95256.38;5029332;28;19997;-66
2022/06/09 07:23:58;;;;;;;;;;;;;;;9.58;60.10;95249.09;5053695;28;20428;-66
2022/06/09 07:26:23;;;;;;;;;;;;;;;9.67;59.61;95257.00;5055055;28;19964;-66
2022/06/09 07:28:48;;;;;;;;;;;;;;;8.85;63.27;95267.25;5070505;28;20414;-70
2022/06/09 07:31:14;;;;;;;;;;;;;;;7.81;65.89;95279.59;5055707;28;19980;-66
2022/06/09 07:33:40;;;;;;;;;;;;;;;8.37;64.18;95274.28;5046740;28;19992;-65
2022/06/09 07:36:07;;;;;;;;;;;;;;;8.74;63.03;95274.59;5057752;28;20036;-66
2022/06/09 07:38:33;;;;;;;;;;;;;;;8.52;63.76;95279.69;5049760;28;20438;-67
2022/06/09 07:40:58;;;;;;;;;;;;;;;8.20;63.86;95281.50;5057787;28;19992;-66
2022/06/09 07:43:23;;;;;;;;;;;;;;;7.95;66.24;95278.09;5055862;28;19969;-66
2022/06/09 07:45:50;;;;;;;;;;;;;;;8.02;65.36;95290.47;5059465;28;20452;-66
2022/06/09 07:48:15;;;;;;;;;;;;;;;8.36;64.56;95290.38;5057192;28;20131;-66
2022/06/09 07:50:41;;;;;;;;;;;;;;;9.33;62.04;95281.22;5056527;28;19986;-66
2022/06/09 07:53:06;;;;;;;;;;;;;;;9.40;62.58;95294.59;5052198;28;19996;-66
2022/06/09 07:55:32;;;;;;;;;;;;;;;9.19;61.57;95295.25;5056021;28;20134;-66
2022/06/09 07:57:57;;;;;;;;;;;;;;;9.30;61.40;95307.28;5057905;28;20387;-66
2022/06/09 08:00:23;;;;;;;;;;;;;;;8.74;62.12;95300.31;5049793;28;19989;-65
2022/06/09 08:02:48;;;;;;;;;;;;;;;9.21;62.69;95301.22;5050798;28;19979;-66
2022/06/09 08:05:14;;;;;;;;;;;;;;;9.26;62.06;95296.22;5057837;28;20305;-65
2022/06/09 08:07:41;;;;;;;;;;;;;;;9.53;60.82;95301.16;5054059;28;20072;-66
2022/06/09 08:10:06;;;;;;;;;;;;;;;9.68;61.17;95309.97;5058609;28;20087;-66
2022/06/09 08:12:32;;;;;;;;;;;;;;;9.41;60.99;95314.00;5056721;28;20752;-66
2022/06/09 08:14:57;;;;;;;;;;;;;;;9.26;61.42;95306.00;5057432;28;19975;-66
2022/06/09 08:17:22;;;;;;;;;;;;;;;9.43;61.54;95318.19;5046622;28;20602;-66
2022/06/09 08:19:48;;;;;;;;;;;;;;;8.59;63.87;95324.09;5055922;28;19976;-66
2022/06/09 08:22:14;;;;;;;;;;;;;;;9.05;63.05;95315.44;5052022;28;20414;-66
2022/06/09 08:24:39;;;;;;;;;;;;;;;9.29;62.14;95317.09;5057352;28;19996;-66
2022/06/09 08:27:04;;;;;;;;;;;;;;;9.26;62.15;95322.78;5049605;28;19977;-66
2022/06/09 08:29:29;;;;;;;;;;;;;;;8.54;63.96;95336.06;5053404;28;20076;-66
2022/06/09 08:31:55;;;;;;;;;;;;;;;8.71;64.01;95336.00;5054445;28;20434;-66
2022/06/09 08:34:20;;;;;;;;;;;;;;;8.99;63.54;95332.91;5048886;28;20480;-66
2022/06/09 08:36:45;;;;;;;;;;;;;;;8.91;62.83;95340.88;5057882;28;20004;-66
2022/06/09 08:39:11;;;;;;;;;;;;;;;9.06;63.24;95349.78;5053381;28;19987;-65
2022/06/09 08:41:38;;;;;;;;;;;;;;;8.89;63.34;95354.34;5048620;28;20000;-66
2022/06/09 08:44:18;;;;;;;;;;;;;;;9.05;62.18;95334.84;5055885;28;20433;-67
2022/06/09 08:46:54;;;;;;;;;;;;;;;9.85;62.45;95345.22;5055957;28;19996;-65
2022/06/09 08:49:37;;;;;;;;;;;;;;;9.84;59.90;95350.72;5054064;28;20458;-66
2022/06/09 08:52:27;;;;;;;;;;;;;;;9.90;60.28;95355.34;5050546;28;20543;-66
2022/06/09 08:54:53;;;;;;;;;;;;;;;10.03;60.91;95349.38;5072653;28;20390;-66
2022/06/09 08:57:20;;;;;;;;;;;;;;;10.25;58.72;95346.88;5031120;28;20080;-69
2022/06/09 08:59:46;;;;;;;;;;;;;;;9.56;60.47;95360.06;5046129;28;20413;-66
2022/06/09 09:02:19;;;;;;;;;;;;;;;9.88;59.49;95367.13;5030279;28;20583;-66
2022/06/09 09:04:45;;;;;;;;;;;;;;;9.77;60.52;95373.72;5047688;28;19996;-66
2022/06/09 09:07:15;;;;;;;;;;;;;;;10.36;59.15;95361.53;5034380;28;19977;-66
2022/06/09 09:09:41;;;;;;;;;;;;;;;10.67;57.68;95362.38;5048124;28;20000;-66
2022/06/09 09:12:15;;;;;;;;;;;;;;;10.61;57.08;95362.09;5043808;28;19997;-64
2022/06/09 09:14:43;;;;;;;;;;;;;;;11.01;55.94;95358.28;5058241;28;19967;-66
2022/06/09 09:17:08;;;;;;;;;;;;;;;10.54;56.39;95365.69;5057371;28;19992;-66
2022/06/09 09:19:42;;;;;;;;;;;;;;;11.02;55.81;95367.94;5052044;28;19972;-66
2022/06/09 09:22:09;;;;;;;;;;;;;;;11.60;54.47;95364.44;5040108;28;20020;-66
2022/06/09 09:24:35;;;;;;;;;;;;;;;11.25;53.65;95366.97;5053044;28;20474;-65
2022/06/09 09:27:19;;;;;;;;;;;;;;;11.54;55.01;95372.41;5056833;28;19969;-67
2022/06/09 09:29:44;;;;;;;;;;;;;;;12.22;53.42;95382.66;5044494;28;20379;-68
2022/06/09 09:32:17;;;;;;;;;;;;;;;11.24;54.49;95392.81;5049801;28;19992;-65
2022/06/09 09:34:43;;;;;;;;;;;;;;;11.17;55.59;95391.06;5053349;28;20440;-67
2022/06/09 09:37:15;;;;;;;;;;;;;;;11.38;55.51;95391.13;5059964;28;19996;-68
2022/06/09 09:39:41;;;;;;;;;;;;;;;11.06;54.95;95390.53;5056225;28;20344;-66
2022/06/09 09:42:08;;;;;;;;;;;;;;;11.84;53.48;95394.44;5057920;28;19998;-66
2022/06/09 09:44:33;;;;;;;;;;;;;;;11.69;52.57;95399.00;5021690;28;19999;-67
2022/06/09 09:46:59;;;;;;;;;;;;;;;12.17;53.84;95394.94;5054846;28;20203;-66
2022/06/09 09:49:34;;;;;;;;;;;;;;;12.65;52.60;95397.69;5053104;28;19998;-66
2022/06/09 09:51:59;;;;;;;;;;;;;;;11.83;53.36;95398.09;5050532;28;19967;-67
2022/06/09 09:54:29;;;;;;;;;;;;;;;11.62;53.23;95409.59;5037739;28;20155;-67
2022/06/09 09:57:03;;;;;;;;;;;;;;;11.74;53.14;95396.59;5056872;28;19994;-65
2022/06/09 09:59:28;;;;;;;;;;;;;;;12.31;52.45;95401.19;5043030;28;19965;-66
2022/06/09 10:10:16;;;;;;;;;;;;;;;13.04;50.56;95402.66;5069394;28;20030;-66
2022/06/09 10:12:42;;;;;;;;;;;;;;;13.45;50.22;95395.59;5059449;28;19993;-66
2022/06/09 10:15:10;;;;;;;;;;;;;;;14.02;51.27;95399.84;5037260;28;20029;-69
2022/06/09 10:17:36;;;;;;;;;;;;;;;13.63;49.46;95408.41;5060826;28;19989;-67
2022/06/09 10:20:13;;;;;;;;;;;;;;;14.29;49.15;95400.66;5061222;28;20018;-67
2022/06/09 10:22:39;;;;;;;;;;;;;;;13.39;50.67;95417.78;5055622;28;19985;-66
2022/06/09 10:25:13;;;;;;;;;;;;;;;13.23;47.97;95418.97;5053600;28;20034;-67
2022/06/09 10:27:39;;;;;;;;;;;;;;;12.48;50.22;95418.53;5034330;28;20070;-64
2022/06/09 10:30:10;;;;;;;;;;;;;;;12.70;49.90;95418.50;5064726;28;20085;-66
2022/06/09 10:32:35;;;;;;;;;;;;;;;12.11;50.82;95426.69;5061371;28;20029;-66
2022/06/09 10:35:04;;;;;;;;;;;;;;;12.94;50.13;95432.38;5063275;28;20005;-66
2022/06/09 10:37:35;;;;;;;;;;;;;;;13.13;47.36;95435.41;5063196;28;19983;-66
2022/06/09 10:40:20;;;;;;;;;;;;;;;13.55;48.52;95427.31;5055955;28;20593;-67
2022/06/09 10:42:52;;;;;;;;;;;;;;;13.94;47.50;95436.47;5055769;28;19968;-67
2022/06/09 10:45:21;;;;;;;;;;;;;;;13.91;47.14;95436.06;5046655;28;20405;-77
2022/06/09 10:56:31;;;;;;;;;;;;;;;12.37;50.53;95449.28;5050437;28;20002;-76
2022/06/09 10:59:11;;;;;;;;;;;;;;;13.05;48.25;95447.06;5048201;28;20466;-74
2022/06/09 11:01:37;;;;;;;;;;;;;;;12.93;48.45;95444.91;5047696;28;20560;-78
2022/06/09 11:04:03;;;;;;;;;;;;;;;13.52;47.80;95451.78;5065977;28;20070;-78
2022/06/09 11:06:32;;;;;;;;;;;;;;;13.99;47.69;95456.44;5059338;28;20408;-73
2022/06/09 11:09:09;;;;;;;;;;;;;;;13.44;48.87;95458.13;5064518;28;19999;-78
2022/06/09 11:11:53;;;;;;;;;;;;;;;13.37;49.34;95458.13;5057020;28;20016;-77
2022/06/09 11:14:23;;;;;;;;;;;;;;;13.96;47.77;95455.00;5066910;28;20468;-78
2022/06/09 11:16:49;;;;;;;;;;;;;;;;;;5080412;28;19985;-78
2022/06/09 11:19:33;;;;;;;;;;;;;;;13.50;47.86;95456.50;5082016;28;19967;-77
2022/06/09 11:22:17;;;;;;;;;;;;;;;14.81;45.52;95452.75;5042041;28;20039;-78
2022/06/09 11:24:51;;;;;;;;;;;;;;;14.82;45.35;95446.38;5064810;28;20478;-77
2022/06/09 11:27:16;;;;;;;;;;;;;;;14.71;45.35;95453.16;5059296;28;20388;-78
2022/06/09 11:30:00;;;;;;;;;;;;;;;14.71;45.05;95456.66;5064854;28;19985;-79
2022/06/09 11:32:44;;;;;;;;;;;;;;;15.31;44.21;95446.84;5045431;28;20074;-78
2022/06/09 11:35:17;;;;;;;;;;;;;;;15.81;42.19;95436.50;5063345;28;20153;-78
2022/06/09 11:37:54;;;;;;;;;;;;;;;16.06;43.15;95446.47;5045486;28;20523;-77
2022/06/09 11:40:32;;;;;;;;;;;;;;;16.58;41.75;95446.28;5028860;28;20608;-79
2022/06/09 11:43:03;;;;;;;;;;;;;;;16.16;40.60;95444.13;5049076;28;19959;-79
2022/06/09 11:45:49;;;;;;;;;;;;;;;16.05;41.96;95452.88;5046118;28;20360;-78
2022/06/09 11:48:21;;;;;;;;;;;;;;;15.15;42.51;95456.16;5045805;28;20562;-78
2022/06/09 11:50:46;;;;;;;;;;;;;;;15.31;43.50;95457.56;5045808;28;19964;-79
2022/06/09 11:53:14;;;;;;;;;;;;;;;15.07;44.47;95465.28;5044367;28;20032;-78
2022/06/09 11:55:58;;;;;;;;;;;;;;;15.12;45.29;95463.81;5042293;28;19957;-78
2022/06/09 11:58:32;;;;;;;;;;;;;;;14.32;45.60;95477.88;5049427;28;19994;-78
2022/06/09 12:01:06;;;;;;;;;;;;;;;14.06;45.41;95478.69;5065369;28;21188;-79
2022/06/09 12:03:38;;;;;;;;;;;;;;;14.17;47.57;95478.09;5046743;28;20502;-79
2022/06/09 12:06:12;;;;;;;;;;;;;;;14.49;45.79;95480.16;5064349;28;20449;-79
2022/06/09 12:08:45;;;;;;;;;;;;;;;15.58;43.01;95478.94;5064295;28;19994;-79
2022/06/09 12:11:18;;;;;;;;;;;;;;;14.84;44.02;95479.97;5029359;28;20409;-79
2022/06/09 12:13:53;;;;;;;;;;;;;;;15.18;43.24;95484.41;5046691;28;20025;-79
2022/06/09 12:16:21;;;;;;;;;;;;;;;14.75;45.89;95491.09;5063651;28;19984;-78
2022/06/09 12:18:57;;;;;;;;;;;;;;;14.35;45.23;95492.75;5063555;28;19958;-79
2022/06/09 12:21:31;;;;;;;;;;;;;;;13.99;46.27;95497.41;5032321;28;20429;-79
2022/06/09 12:24:02;;;;;;;;;;;;;;;14.29;45.98;95506.94;5044952;28;20023;-75
2022/06/09 12:26:40;;;;;;;;;;;;;;;14.53;45.02;95508.19;5050421;28;20009;-76
2022/06/09 12:29:22;;;;;;;;;;;;;;;15.09;44.18;95494.53;5062996;28;20066;-76
2022/06/09 12:32:06;;;;;;;;;;;;;;;15.34;42.44;95501.91;5063353;28;19967;-76
2022/06/09 12:34:31;;;;;;;;;;;;;;;15.47;43.24;95498.38;5079048;28;19972;-76
2022/06/09 12:36:57;;;;;;;;;;;;;;;15.69;42.22;95506.97;5045155;28;20697;-76
2022/06/09 12:39:30;;;;;;;;;;;;;;;16.05;41.49;95506.56;5040650;28;19956;-75
2022/06/09 12:41:56;;;;;;;;;;;;;;;16.86;39.69;95506.00;5025381;28;20674;-75
2022/06/09 12:44:22;;;;;;;;;;;;;;;16.81;39.83;95498.59;5045046;28;19985;-75
2022/06/09 12:47:15;;;;;;;;;;;;;;;17.30;38.81;95507.88;5044961;28;20047;-76
2022/06/09 12:49:42;;;;;;;;;;;;;;;16.64;35.92;95514.44;5060198;28;19984;-76
2022/06/09 12:52:18;;;;;;;;;;;;;;;16.44;36.98;95520.81;5044937;28;20021;-75
2022/06/09 12:54:43;;;;;;;;;;;;;;;16.51;36.79;95521.59;5028654;28;20415;-75
2022/06/09 12:57:22;;;;;;;;;;;;;;;16.87;37.75;95521.88;5044777;28;19974;-75
2022/06/09 12:59:58;;;;;;;;;;;;;;;16.65;39.16;95521.47;5044828;28;20549;-75
2022/06/09 13:02:25;;;;;;;;;;;;;;;16.56;39.07;95515.56;5045287;28;19972;-75
2022/06/09 13:04:57;;;;;;;;;;;;;;;16.21;39.22;95516.78;5044540;28;20062;-75
2022/06/09 13:07:32;;;;;;;;;;;;;;;15.47;39.59;95541.28;5079420;28;20177;-75
2022/06/09 13:09:58;;;;;;;;;;;;;;;14.39;40.26;95555.56;5032014;28;19990;-75
2022/06/09 13:15:08;;;;;;;;;;;;;;;14.07;42.58;95556.13;5051946;28;19973;-77
2022/06/09 13:17:34;;;;;;;;;;;;;;;14.48;42.99;95555.38;5048165;28;20200;-75
2022/06/09 13:20:03;;;;;;;;;;;;;;;14.58;42.44;95563.81;5048291;28;19954;-75
2022/06/09 13:22:29;;;;;;;;;;;;;;;14.33;42.08;95572.44;5048510;28;19973;-75
2022/06/09 13:24:54;;;;;;;;;;;;;;;14.52;41.86;95568.13;5082263;28;20016;-75
2022/06/09 13:27:21;;;;;;;;;;;;;;;14.49;43.39;95555.16;5082329;28;19963;-74